createdAt,value
2017-07-07T00:00:22.858Z,4.53
2017-07-07T00:02:51.234Z,4.70
2017-07-07T00:05:19.530Z,3.47
2017-07-07T00:07:47.828Z,3.70
2017-07-07T00:10:16.156Z,4.47
2017-07-07T00:12:44.468Z,3.90
2017-07-07T00:15:12.802Z,3.33
2017-07-07T00:17:41.101Z,10.17
2017-07-07T00:20:10.163Z,4.70
2017-07-07T00:22:38.538Z,5.57
2017-07-07T00:25:06.833Z,4.83
2017-07-07T00:27:35.130Z,4.57
2017-07-07T00:30:03.473Z,7.50
2017-07-07T00:32:31.773Z,5.43
2017-07-07T00:35:00.070Z,9.10
2017-07-07T00:37:28.394Z,9.13
2017-07-07T00:39:56.699Z,6.30
2017-07-07T00:42:25.038Z,9.27
2017-07-07T00:44:54.106Z,8.77
2017-07-07T00:47:22.454Z,11.57
2017-07-07T00:49:50.754Z,12.53
2017-07-07T00:52:19.058Z,14.17
2017-07-07T00:54:47.401Z,14.60
2017-07-07T00:57:15.711Z,15.33
2017-07-07T00:59:44.009Z,18.93
2017-07-07T01:02:12.356Z,19.30
2017-07-07T01:04:40.686Z,19.10
2017-07-07T01:07:09.017Z,23.20
2017-07-07T01:09:37.342Z,18.13
2017-07-07T01:12:05.676Z,18.40
2017-07-07T01:14:33.983Z,13.13
2017-07-07T01:17:03.496Z,10.57
2017-07-07T01:19:32.558Z,12.43
2017-07-07T01:22:00.887Z,14.00
2017-07-07T01:24:29.234Z,14.10
2017-07-07T01:26:58.303Z,15.13
2017-07-07T01:29:26.609Z,12.67
2017-07-07T01:31:54.950Z,13.87
2017-07-07T01:34:23.263Z,10.70
2017-07-07T01:36:52.331Z,12.93
2017-07-07T01:39:20.675Z,14.57
2017-07-07T01:41:48.981Z,14.83
2017-07-07T01:44:17.282Z,12.90
2017-07-07T01:46:45.617Z,11.67
2017-07-07T01:49:13.923Z,9.60
2017-07-07T01:51:42.267Z,10.17
2017-07-07T01:54:10.789Z,12.00
2017-07-07T01:56:39.123Z,8.73
2017-07-07T01:59:07.434Z,10.90
2017-07-07T02:01:35.765Z,8.30
2017-07-07T02:04:04.070Z,8.13
2017-07-07T02:06:32.409Z,8.50
2017-07-07T02:09:00.719Z,8.80
2017-07-07T02:11:29.030Z,7.53
2017-07-07T02:13:57.371Z,12.30
2017-07-07T02:16:25.671Z,13.10
2017-07-07T02:18:54.779Z,17.20
2017-07-07T02:21:23.858Z,10.77
2017-07-07T02:23:52.160Z,13.30
2017-07-07T02:26:20.507Z,13.30
2017-07-07T02:28:49.573Z,9.80
2017-07-07T02:31:17.912Z,14.67
2017-07-07T02:33:46.211Z,13.33
2017-07-07T02:36:14.561Z,15.10
2017-07-07T02:38:42.867Z,16.90
2017-07-07T02:41:11.177Z,16.20
2017-07-07T02:43:39.513Z,16.40
2017-07-07T02:46:07.827Z,14.70
2017-07-07T02:48:36.168Z,17.83
2017-07-07T02:51:05.188Z,16.03
2017-07-07T02:53:33.561Z,14.17
2017-07-07T02:56:01.861Z,14.50
2017-07-07T02:58:30.165Z,13.70
2017-07-07T03:00:58.510Z,15.83
2017-07-07T03:03:26.817Z,16.83
2017-07-07T03:05:55.176Z,14.40
2017-07-07T03:08:23.476Z,17.33
2017-07-07T03:10:51.827Z,12.80
2017-07-07T03:13:20.131Z,11.70
2017-07-07T03:15:48.426Z,13.23
2017-07-07T03:18:16.760Z,12.67
2017-07-07T03:20:45.076Z,14.90
2017-07-07T03:23:13.376Z,12.77
2017-07-07T03:25:41.711Z,14.17
2017-07-07T03:28:10.790Z,14.93
2017-07-07T03:30:39.235Z,13.00
2017-07-07T03:33:07.540Z,13.43
2017-07-07T03:35:35.879Z,13.20
2017-07-07T03:38:04.179Z,14.23
2017-07-07T03:40:32.509Z,10.30
2017-07-07T03:43:00.877Z,13.47
2017-07-07T03:45:29.229Z,11.03
2017-07-07T03:47:57.535Z,14.13
2017-07-07T03:50:26.613Z,12.83
2017-07-07T03:52:54.957Z,14.20
2017-07-07T03:55:24.021Z,11.53
2017-07-07T03:57:52.346Z,8.77
2017-07-07T04:00:20.642Z,11.73
2017-07-07T04:02:48.970Z,10.93
2017-07-07T04:05:17.275Z,14.57
2017-07-07T04:07:45.610Z,13.63
2017-07-07T04:10:14.713Z,12.43
2017-07-07T04:12:43.794Z,13.80
2017-07-07T04:15:12.134Z,10.30
2017-07-07T04:17:40.440Z,12.20
2017-07-07T04:20:08.734Z,13.93
2017-07-07T04:22:37.067Z,19.00
2017-07-07T04:25:05.373Z,15.80
2017-07-07T04:27:33.707Z,16.83
2017-07-07T04:30:02.037Z,13.67
2017-07-07T04:32:30.344Z,12.50
2017-07-07T04:34:58.679Z,10.87
2017-07-07T04:37:26.982Z,15.87
2017-07-07T04:39:55.322Z,16.87
2017-07-07T04:42:23.643Z,17.53
2017-07-07T04:44:51.990Z,14.93
2017-07-07T04:47:20.301Z,16.40
2017-07-07T04:49:48.614Z,16.77
2017-07-07T04:52:16.946Z,17.40
2017-07-07T04:54:45.249Z,16.67
2017-07-07T04:57:13.597Z,16.43
2017-07-07T04:59:42.671Z,17.13
2017-07-07T05:02:11.011Z,19.43
2017-07-07T05:04:39.319Z,16.33
2017-07-07T05:07:07.661Z,15.83
2017-07-07T05:09:35.967Z,15.03
2017-07-07T05:12:04.265Z,18.20
2017-07-07T05:14:32.609Z,15.53
2017-07-07T05:17:00.925Z,12.37
2017-07-07T05:19:29.255Z,12.27
2017-07-07T05:21:57.572Z,14.50
2017-07-07T05:24:25.913Z,13.07
2017-07-07T05:26:54.580Z,11.60
2017-07-07T05:29:22.936Z,8.73
2017-07-07T05:31:51.226Z,9.73
2017-07-07T05:34:19.533Z,8.77
2017-07-07T05:36:47.876Z,9.50
2017-07-07T05:39:16.179Z,8.47
2017-07-07T05:41:44.537Z,6.40
2017-07-07T05:44:13.441Z,6.77
2017-07-07T05:46:41.741Z,6.13
2017-07-07T05:49:10.076Z,5.90
2017-07-07T05:51:38.372Z,4.27
2017-07-07T05:54:06.711Z,8.10
2017-07-07T05:56:35.057Z,5.37
2017-07-07T05:59:03.347Z,3.90
2017-07-07T06:01:32.382Z,3.50
2017-07-07T06:04:00.716Z,3.10
2017-07-07T06:06:29.049Z,2.70
2017-07-07T06:08:58.161Z,3.53
2017-07-07T06:11:26.467Z,2.73
2017-07-07T06:13:55.563Z,3.73
2017-07-07T06:16:23.075Z,3.53
2017-07-07T06:18:50.620Z,4.33
2017-07-07T06:21:18.129Z,3.60
2017-07-07T06:23:47.202Z,5.10
2017-07-07T06:26:15.547Z,3.40
2017-07-07T06:28:44.609Z,1.70
2017-07-07T06:31:12.905Z,2.30
2017-07-07T06:33:41.235Z,2.80
2017-07-07T06:36:09.754Z,3.17
2017-07-07T06:38:38.081Z,8.70
2017-07-07T06:41:06.380Z,3.20
2017-07-07T06:43:34.717Z,2.60
2017-07-07T06:46:03.017Z,3.97
2017-07-07T06:48:31.367Z,2.80
2017-07-07T06:51:00.105Z,3.53
2017-07-07T06:53:28.434Z,2.33
2017-07-07T06:55:56.765Z,2.17
2017-07-07T06:58:25.056Z,4.93
2017-07-07T07:00:53.474Z,4.17
2017-07-07T07:03:21.765Z,2.37
2017-07-07T07:05:50.076Z,2.03
2017-07-07T07:08:18.425Z,3.90
2017-07-07T07:10:46.915Z,2.33
2017-07-07T07:13:15.252Z,2.27
2017-07-07T07:15:43.609Z,2.40
2017-07-07T07:18:11.926Z,2.73
2017-07-07T07:20:40.227Z,2.20
2017-07-07T07:23:08.549Z,2.13
2017-07-07T07:25:36.845Z,2.90
2017-07-07T07:28:05.165Z,3.13
2017-07-07T07:30:33.515Z,1.73
2017-07-07T07:33:01.805Z,1.50
2017-07-07T07:35:30.106Z,2.17
2017-07-07T07:37:58.461Z,2.20
2017-07-07T07:40:26.761Z,2.70
2017-07-07T07:42:55.050Z,2.27
2017-07-07T07:45:23.380Z,2.30
2017-07-07T07:47:51.680Z,3.63
2017-07-07T07:50:20.022Z,3.13
2017-07-07T07:52:48.322Z,6.57
2017-07-07T07:55:16.618Z,2.00
2017-07-07T07:57:44.957Z,3.23
2017-07-07T08:00:13.277Z,4.30
2017-07-07T08:02:41.610Z,3.20
2017-07-07T08:05:09.933Z,3.30
2017-07-07T08:07:38.229Z,2.10
2017-07-07T08:10:06.577Z,2.33
2017-07-07T08:12:35.094Z,2.70
2017-07-07T08:15:03.385Z,2.50
2017-07-07T08:17:31.732Z,3.13
2017-07-07T08:20:00.064Z,4.17
2017-07-07T08:22:28.367Z,4.90
2017-07-07T08:24:56.697Z,6.63
2017-07-07T08:27:24.990Z,2.80
2017-07-07T08:29:53.431Z,3.30
2017-07-07T08:32:21.726Z,2.77
2017-07-07T08:34:50.024Z,2.53
2017-07-07T08:37:18.365Z,2.03
2017-07-07T08:39:46.661Z,3.37
2017-07-07T08:42:15.000Z,3.03
2017-07-07T08:44:43.344Z,2.20
2017-07-07T08:47:13.219Z,2.60
2017-07-07T08:49:41.865Z,2.43
2017-07-07T08:52:10.347Z,3.67
2017-07-07T08:54:38.677Z,4.30
2017-07-07T08:57:06.979Z,2.73
2017-07-07T08:59:35.321Z,2.60
2017-07-07T09:02:03.615Z,2.57
2017-07-07T09:04:31.912Z,2.50
2017-07-07T09:07:00.328Z,2.00
2017-07-07T09:09:28.627Z,2.70
2017-07-07T09:11:56.938Z,2.70
2017-07-07T09:14:25.282Z,2.93
2017-07-07T09:16:53.618Z,2.90
2017-07-07T09:19:22.513Z,3.67
2017-07-07T09:21:50.844Z,3.63
2017-07-07T09:24:19.247Z,3.50
2017-07-07T09:26:47.556Z,3.97
2017-07-07T09:29:15.866Z,4.13
2017-07-07T09:31:44.212Z,3.37
2017-07-07T09:34:13.412Z,2.97
2017-07-07T09:36:41.716Z,3.33
2017-07-07T09:39:10.023Z,3.40
2017-07-07T09:41:38.401Z,4.67
2017-07-07T09:44:06.713Z,3.47
2017-07-07T09:46:35.021Z,3.10
2017-07-07T09:49:03.366Z,3.37
2017-07-07T09:51:32.443Z,4.83
2017-07-07T09:54:00.755Z,7.50
2017-07-07T09:56:29.098Z,4.00
2017-07-07T09:58:58.193Z,4.40
2017-07-07T10:01:26.496Z,3.50
2017-07-07T10:03:54.837Z,5.70
2017-07-07T10:06:23.139Z,2.90
2017-07-07T10:08:51.433Z,3.47
2017-07-07T10:11:19.779Z,3.60
2017-07-07T10:13:48.075Z,3.80
2017-07-07T10:16:16.420Z,4.27
2017-07-07T10:18:44.723Z,3.43
2017-07-07T10:21:13.076Z,3.10
2017-07-07T10:23:42.387Z,3.70
2017-07-07T10:26:10.698Z,3.07
2017-07-07T10:28:39.082Z,5.53
2017-07-07T10:31:08.146Z,3.47
2017-07-07T10:33:36.451Z,4.63
2017-07-07T10:36:04.793Z,3.73
2017-07-07T10:38:33.102Z,5.00
2017-07-07T10:41:01.408Z,3.57
2017-07-07T10:43:29.752Z,3.83
2017-07-07T10:45:58.058Z,4.17
2017-07-07T10:48:26.406Z,3.70
2017-07-07T10:50:54.703Z,3.60
2017-07-07T10:53:23.008Z,4.17
2017-07-07T10:55:51.361Z,4.30
2017-07-07T10:58:20.426Z,4.27
2017-07-07T11:00:48.731Z,6.43
2017-07-07T11:03:17.073Z,4.20
2017-07-07T11:05:46.167Z,6.70
2017-07-07T11:08:14.471Z,3.60
2017-07-07T11:10:42.831Z,4.10
2017-07-07T11:13:11.128Z,3.60
2017-07-07T11:15:40.242Z,4.53
2017-07-07T11:18:09.303Z,4.00
2017-07-07T11:20:37.605Z,4.50
2017-07-07T11:23:05.953Z,4.00
2017-07-07T11:25:34.301Z,4.60
2017-07-07T11:28:03.006Z,4.43
2017-07-07T11:30:31.307Z,5.70
2017-07-07T11:32:59.657Z,3.90
2017-07-07T11:35:27.982Z,4.33
2017-07-07T11:37:56.278Z,3.63
2017-07-07T11:40:24.626Z,6.13
2017-07-07T11:42:52.925Z,3.00
2017-07-07T11:45:21.923Z,3.90
2017-07-07T11:47:51.322Z,3.80
2017-07-07T11:50:19.622Z,3.83
2017-07-07T11:52:47.951Z,6.47
2017-07-07T11:55:17.061Z,4.70
2017-07-07T11:57:45.361Z,7.20
2017-07-07T12:00:13.667Z,5.73
2017-07-07T12:02:42.023Z,3.07
2017-07-07T12:05:10.329Z,3.97
2017-07-07T12:07:38.626Z,4.17
2017-07-07T12:10:06.978Z,4.20
2017-07-07T12:12:35.289Z,5.40
2017-07-07T12:15:04.406Z,3.90
2017-07-07T12:17:33.475Z,3.50
2017-07-07T12:20:01.774Z,4.10
2017-07-07T12:22:30.129Z,5.43
2017-07-07T12:24:58.421Z,3.47
2017-07-07T12:27:26.728Z,3.60
2017-07-07T12:29:55.071Z,4.43
2017-07-07T12:32:23.372Z,3.60
2017-07-07T12:34:52.437Z,4.83
2017-07-07T12:37:20.768Z,4.00
2017-07-07T12:39:49.115Z,3.80
2017-07-07T12:42:17.414Z,2.40
2017-07-07T12:44:45.723Z,3.30
2017-07-07T12:47:14.063Z,3.00
2017-07-07T12:49:42.390Z,2.53
2017-07-07T12:52:10.703Z,7.20
2017-07-07T12:54:39.978Z,3.43
2017-07-07T12:57:08.323Z,3.40
2017-07-07T12:59:37.060Z,4.90
2017-07-07T13:02:05.390Z,2.57
2017-07-07T13:04:33.724Z,3.50
2017-07-07T13:07:02.102Z,3.53
2017-07-07T13:09:30.431Z,2.90
2017-07-07T13:11:58.729Z,4.40
2017-07-07T13:14:27.097Z,3.20
2017-07-07T13:16:55.402Z,3.43
2017-07-07T13:19:23.698Z,5.40
2017-07-07T13:21:52.047Z,3.20
2017-07-07T13:24:20.375Z,2.77
2017-07-07T13:26:48.723Z,2.80
2017-07-07T13:29:17.022Z,2.90
2017-07-07T13:31:45.407Z,2.20
2017-07-07T13:34:13.752Z,3.03
2017-07-07T13:36:42.045Z,2.00
2017-07-07T13:39:11.278Z,4.90
2017-07-07T13:41:39.616Z,2.70
2017-07-07T13:44:08.717Z,2.83
2017-07-07T13:46:37.062Z,2.60
2017-07-07T13:49:10.914Z,3.30
2017-07-07T13:51:39.258Z,3.20
2017-07-07T13:54:07.556Z,3.03
2017-07-07T13:56:36.642Z,5.57
2017-07-07T13:59:04.995Z,3.30
2017-07-07T14:01:33.284Z,4.03
2017-07-07T14:04:01.580Z,3.20
2017-07-07T14:06:29.909Z,2.43
2017-07-07T14:08:58.973Z,2.70
2017-07-07T14:11:27.305Z,2.50
2017-07-07T14:13:55.637Z,2.57
2017-07-07T14:16:24.743Z,2.53
2017-07-07T14:18:53.070Z,2.27
2017-07-07T14:21:21.375Z,2.33
2017-07-07T14:23:49.701Z,2.20
2017-07-07T14:26:17.998Z,2.60
2017-07-07T14:28:46.333Z,2.50
2017-07-07T14:31:14.624Z,3.30
2017-07-07T14:33:42.951Z,2.57
2017-07-07T14:36:11.247Z,10.93
2017-07-07T14:38:39.579Z,3.73
2017-07-07T14:41:07.880Z,2.60
2017-07-07T14:43:36.987Z,4.57
2017-07-07T14:46:05.499Z,3.20
2017-07-07T14:48:33.820Z,3.20
2017-07-07T14:51:02.891Z,2.40
2017-07-07T14:53:31.232Z,4.80
2017-07-07T14:55:59.577Z,2.17
2017-07-07T14:58:27.873Z,3.87
2017-07-07T15:00:56.252Z,3.30
2017-07-07T15:03:24.589Z,2.23
2017-07-07T15:05:52.884Z,2.97
2017-07-07T15:08:21.255Z,3.73
2017-07-07T15:10:50.325Z,2.00
2017-07-07T15:13:18.711Z,5.00
2017-07-07T15:15:47.738Z,2.47
2017-07-07T15:18:16.078Z,1.93
2017-07-07T15:20:45.148Z,2.60
2017-07-07T15:23:13.447Z,2.07
2017-07-07T15:25:41.783Z,2.73
2017-07-07T15:28:10.088Z,3.80
2017-07-07T15:30:38.423Z,2.33
2017-07-07T15:33:06.779Z,2.70
2017-07-07T15:35:35.109Z,2.57
2017-07-07T15:38:03.405Z,4.40
2017-07-07T15:40:31.740Z,4.70
2017-07-07T15:43:00.806Z,3.10
2017-07-07T15:45:29.138Z,2.67
2017-07-07T15:47:57.441Z,5.03
2017-07-07T15:50:25.783Z,4.73
2017-07-07T15:52:54.119Z,11.23
2017-07-07T15:55:22.428Z,19.00
2017-07-07T15:57:50.760Z,6.50
2017-07-07T16:00:19.831Z,3.83
2017-07-07T16:02:48.170Z,3.37
2017-07-07T16:05:16.475Z,4.03
2017-07-07T16:07:45.594Z,4.90
2017-07-07T16:10:13.922Z,4.73
2017-07-07T16:12:42.987Z,3.97
2017-07-07T16:15:11.322Z,3.50
2017-07-07T16:17:39.622Z,5.30
2017-07-07T16:20:07.954Z,3.50
2017-07-07T16:22:36.255Z,3.40
2017-07-07T16:25:04.578Z,3.60
2017-07-07T16:27:32.882Z,4.20
2017-07-07T16:30:01.204Z,4.10
2017-07-07T16:32:29.529Z,4.30
2017-07-07T16:34:57.830Z,3.20
2017-07-07T16:37:26.167Z,6.17
2017-07-07T16:39:55.247Z,14.90
2017-07-07T16:42:23.573Z,5.57
2017-07-07T16:44:51.910Z,4.23
2017-07-07T16:47:20.983Z,5.80
2017-07-07T16:49:49.309Z,4.70
2017-07-07T16:52:17.613Z,3.97
2017-07-07T16:54:45.950Z,3.87
2017-07-07T16:57:14.258Z,4.40
2017-07-07T16:59:42.561Z,3.97
2017-07-07T17:02:10.894Z,6.50
2017-07-07T17:04:39.205Z,3.30
2017-07-07T17:07:07.541Z,3.20
2017-07-07T17:09:36.606Z,4.33
2017-07-07T17:12:04.934Z,6.67
2017-07-07T17:14:33.239Z,2.73
2017-07-07T17:17:01.577Z,2.40
2017-07-07T17:19:29.907Z,5.67
2017-07-07T17:21:58.209Z,6.20
2017-07-07T17:24:26.559Z,5.43
2017-07-07T17:26:54.855Z,5.17
2017-07-07T17:29:23.155Z,3.30
2017-07-07T17:31:51.487Z,6.80
2017-07-07T17:34:20.576Z,2.90
2017-07-07T17:36:48.879Z,3.07
2017-07-07T17:39:17.223Z,2.40
2017-07-07T17:41:46.374Z,2.73
2017-07-07T17:44:14.682Z,2.97
2017-07-07T17:46:43.029Z,2.70
2017-07-07T17:49:11.322Z,2.70
2017-07-07T17:51:39.657Z,2.97
2017-07-07T17:57:08.665Z,2.90
2017-07-07T17:59:36.969Z,4.70
2017-07-07T18:02:05.339Z,3.20
2017-07-07T18:04:33.686Z,2.87
2017-07-07T18:07:01.975Z,3.97
2017-07-07T18:09:30.389Z,2.20
2017-07-07T18:11:58.748Z,2.50
2017-07-07T18:14:27.053Z,3.70
2017-07-07T18:16:55.430Z,2.67
2017-07-07T18:19:23.743Z,2.60
2017-07-07T18:21:52.090Z,4.60
2017-07-07T18:24:20.435Z,3.30
2017-07-07T18:26:48.730Z,5.33
2017-07-07T18:29:17.046Z,5.30
2017-07-07T18:31:45.391Z,3.43
2017-07-07T18:34:14.456Z,5.00
2017-07-07T18:36:42.773Z,4.60
2017-07-07T18:39:11.456Z,2.60
2017-07-07T18:41:39.763Z,3.70
2017-07-07T18:44:08.065Z,4.27
2017-07-07T18:46:36.408Z,4.23
2017-07-07T18:49:04.713Z,3.77
2017-07-07T18:51:33.071Z,4.60
2017-07-07T18:54:01.415Z,4.13
2017-07-07T18:56:29.784Z,5.93
2017-07-07T18:58:58.858Z,3.60
2017-07-07T19:01:27.151Z,2.40
2017-07-07T19:03:55.495Z,3.40
2017-07-07T19:06:23.946Z,3.90
2017-07-07T19:08:52.274Z,3.73
2017-07-07T19:11:20.602Z,3.40
2017-07-07T19:13:48.900Z,2.30
2017-07-07T19:16:17.227Z,4.63
2017-07-07T19:18:46.318Z,2.93
2017-07-07T19:21:14.611Z,2.47
2017-07-07T19:23:42.907Z,2.83
2017-07-07T19:26:11.241Z,2.63
2017-07-07T19:28:40.314Z,2.30
2017-07-07T19:31:08.613Z,2.50
2017-07-07T19:33:36.951Z,3.93
2017-07-07T19:36:05.257Z,2.33
2017-07-07T19:38:33.591Z,2.97
2017-07-07T19:41:01.896Z,2.47
2017-07-07T19:43:31.003Z,3.30
2017-07-07T19:45:59.306Z,3.17
2017-07-07T19:48:28.392Z,3.07
2017-07-07T19:50:56.734Z,3.07
2017-07-07T19:53:25.034Z,4.53
2017-07-07T19:55:53.339Z,3.07
2017-07-07T19:58:22.453Z,2.50
2017-07-07T20:00:50.758Z,2.87
2017-07-07T20:03:19.075Z,2.60
2017-07-07T20:05:48.195Z,5.33
2017-07-07T20:08:17.279Z,3.73
2017-07-07T20:10:45.617Z,3.93
2017-07-07T20:13:14.730Z,3.40
2017-07-07T20:15:43.093Z,3.20
2017-07-07T20:18:11.473Z,4.37
2017-07-07T20:20:39.743Z,3.40
2017-07-07T20:23:08.860Z,2.67
2017-07-07T20:25:37.162Z,7.27
2017-07-07T20:28:05.458Z,2.87
2017-07-07T20:30:33.791Z,2.90
2017-07-07T20:33:02.899Z,3.10
2017-07-07T20:35:31.197Z,2.80
2017-07-07T20:37:59.494Z,2.97
2017-07-07T20:40:27.823Z,2.70
2017-07-07T20:42:56.158Z,3.80
2017-07-07T20:45:24.597Z,3.70
2017-07-07T20:47:52.897Z,3.57
2017-07-07T20:50:21.268Z,4.00
2017-07-07T20:52:49.567Z,3.10
2017-07-07T20:55:17.875Z,2.80
2017-07-07T20:57:46.218Z,3.00
2017-07-07T21:00:14.528Z,2.70
2017-07-07T21:02:42.817Z,3.00
2017-07-07T21:05:11.157Z,2.83
2017-07-07T21:07:39.517Z,5.03
2017-07-07T21:10:07.849Z,2.97
2017-07-07T21:12:36.229Z,7.60
2017-07-07T21:15:04.521Z,3.67
2017-07-07T21:17:32.868Z,4.10
2017-07-07T21:20:01.168Z,2.53
2017-07-07T21:22:29.503Z,3.50
2017-07-07T21:24:57.853Z,4.73
2017-07-07T21:27:26.178Z,3.00
2017-07-07T21:32:28.065Z,4.77
2017-07-07T21:34:56.378Z,3.50
2017-07-07T21:37:24.701Z,4.00
2017-07-07T21:39:52.997Z,3.67
2017-07-07T21:42:22.204Z,5.13
2017-07-07T21:44:50.508Z,3.37
2017-07-07T21:47:18.805Z,4.77
2017-07-07T21:49:47.157Z,4.00
2017-07-07T21:52:16.288Z,2.90
2017-07-07T21:54:45.458Z,5.60
2017-07-07T21:57:13.816Z,4.13
2017-07-07T21:59:42.113Z,3.83
2017-07-07T22:02:11.193Z,5.27
2017-07-07T22:04:39.566Z,3.30
2017-07-07T22:07:07.861Z,3.77
2017-07-07T22:09:36.149Z,4.20
2017-07-07T22:12:04.517Z,4.60
2017-07-07T22:14:32.836Z,3.80
2017-07-07T22:17:01.948Z,3.67
2017-07-07T22:19:30.303Z,6.13
2017-07-07T22:21:58.645Z,3.87
2017-07-07T22:24:26.937Z,4.37
2017-07-07T22:26:55.287Z,3.70
2017-07-07T22:29:23.633Z,5.77
2017-07-07T22:31:51.926Z,4.10
2017-07-07T22:34:20.228Z,4.33
2017-07-07T22:36:48.569Z,6.40
2017-07-07T22:39:16.873Z,4.10
2017-07-07T22:41:45.934Z,3.60
2017-07-07T22:44:14.290Z,3.23
2017-07-07T22:46:42.580Z,3.47
2017-07-07T22:49:10.881Z,6.07
2017-07-07T22:51:39.220Z,3.90
2017-07-07T22:54:07.518Z,3.43
2017-07-07T22:56:35.813Z,4.63
2017-07-07T22:59:04.166Z,3.60
2017-07-07T23:01:32.461Z,3.40
2017-07-07T23:04:00.778Z,4.80
2017-07-07T23:06:29.109Z,4.87
2017-07-07T23:08:57.400Z,3.40
2017-07-07T23:11:25.693Z,3.30
2017-07-07T23:13:54.046Z,3.57
2017-07-07T23:16:22.421Z,4.20
2017-07-07T23:18:50.717Z,4.63
2017-07-07T23:21:19.784Z,3.70
2017-07-07T23:23:48.120Z,3.67
2017-07-07T23:26:16.422Z,3.97
2017-07-07T23:28:44.718Z,4.20
2017-07-07T23:31:13.059Z,3.90
2017-07-07T23:33:41.362Z,4.33
2017-07-07T23:36:10.423Z,4.70
2017-07-07T23:38:38.746Z,4.00
2017-07-07T23:41:07.096Z,4.07
2017-07-07T23:43:35.398Z,5.23
2017-07-07T23:46:04.466Z,4.67
2017-07-07T23:48:32.812Z,3.83
2017-07-07T23:51:01.105Z,4.80
2017-07-07T23:53:29.401Z,8.50
2017-07-07T23:55:57.774Z,4.60
2017-07-07T23:58:26.070Z,4.93
